createdAt,value
2018-05-08T00:02:10.365Z,101314
2018-05-08T00:04:38.497Z,101322
2018-05-08T00:07:06.649Z,101322
2018-05-08T00:09:34.798Z,101312
2018-05-08T00:12:02.957Z,101318
2018-05-08T00:14:31.877Z,101324
2018-05-08T00:17:00.074Z,101317
2018-05-08T00:19:28.217Z,101313
2018-05-08T00:21:56.329Z,101312
2018-05-08T00:24:24.473Z,101306
2018-05-08T00:26:52.604Z,101314
2018-05-08T00:29:21.694Z,101306
2018-05-08T00:31:50.593Z,101307
2018-05-08T00:34:19.482Z,101308
2018-05-08T00:36:48.392Z,101307
2018-05-08T00:39:16.530Z,101305
2018-05-08T00:41:45.473Z,101305
2018-05-08T00:44:13.976Z,101304
2018-05-08T00:46:42.124Z,101297
2018-05-08T00:49:10.260Z,101305
2018-05-08T00:51:39.913Z,101302
2018-05-08T00:54:08.594Z,101302
2018-05-08T00:56:37.401Z,101307
2018-05-08T00:59:05.541Z,101298
2018-05-08T01:01:33.697Z,101297
2018-05-08T01:04:01.832Z,101301
2018-05-08T01:06:30.096Z,101304
2018-05-08T01:08:58.237Z,101293
2018-05-08T01:11:26.386Z,101303
2018-05-08T01:13:54.569Z,101295
2018-05-08T01:16:22.743Z,101295
2018-05-08T01:18:50.877Z,101297
2018-05-08T01:21:19.016Z,101302
2018-05-08T01:23:47.417Z,101292
2018-05-08T01:26:15.909Z,101300
2018-05-08T01:28:44.569Z,101300
2018-05-08T01:31:12.704Z,101300
2018-05-08T01:33:40.878Z,101303
2018-05-08T01:36:09.175Z,101296
2018-05-08T01:38:38.051Z,101295
2018-05-08T01:41:06.254Z,101290
2018-05-08T01:43:34.485Z,101292
2018-05-08T01:46:02.616Z,101291
2018-05-08T01:48:30.762Z,101291
2018-05-08T01:50:58.944Z,101291
2018-05-08T01:53:27.064Z,101289
2018-05-08T01:55:55.980Z,101289
2018-05-08T01:58:24.168Z,101280
2018-05-08T02:00:52.307Z,101290
2018-05-08T02:03:20.525Z,101289
2018-05-08T02:05:48.706Z,101288
2018-05-08T02:08:16.894Z,101284
2018-05-08T02:10:45.137Z,101285
2018-05-08T02:13:13.273Z,101281
2018-05-08T02:15:41.425Z,101282
2018-05-08T02:18:10.822Z,101281
2018-05-08T02:20:39.752Z,101265
2018-05-08T02:23:07.944Z,101271
2018-05-08T02:25:36.114Z,101276
2018-05-08T02:28:07.696Z,101266
2018-05-08T02:30:35.871Z,101274
2018-05-08T02:33:04.204Z,101270
2018-05-08T02:35:32.384Z,101266
2018-05-08T02:38:00.917Z,101261
2018-05-08T02:40:30.475Z,101262
2018-05-08T02:42:58.626Z,101270
2018-05-08T02:45:26.801Z,101264
2018-05-08T02:47:55.004Z,101262
2018-05-08T02:50:23.142Z,101259
2018-05-08T02:52:51.303Z,101255
2018-05-08T02:55:19.653Z,101250
2018-05-08T02:57:48.603Z,101260
2018-05-08T03:00:17.568Z,101259
2018-05-08T03:02:45.778Z,101257
2018-05-08T03:05:13.913Z,101262
2018-05-08T03:07:42.109Z,101267
2018-05-08T03:10:10.363Z,101257
2018-05-08T03:12:38.525Z,101259
2018-05-08T03:15:07.478Z,101260
2018-05-08T03:17:37.017Z,101265
2018-05-08T03:20:05.908Z,101263
2018-05-08T03:22:36.554Z,101263
2018-05-08T03:25:04.713Z,101262
2018-05-08T03:27:33.603Z,101254
2018-05-08T03:30:02.900Z,101260
2018-05-08T03:32:41.704Z,101257
2018-05-08T03:35:09.861Z,101262
2018-05-08T03:37:38.228Z,101252
2018-05-08T03:40:06.381Z,101253
2018-05-08T03:42:35.633Z,101258
2018-05-08T03:45:03.817Z,101251
2018-05-08T03:47:32.738Z,101250
2018-05-08T03:50:00.917Z,101246
2018-05-08T03:52:29.080Z,101239
2018-05-08T03:54:57.246Z,101248
2018-05-08T03:57:25.511Z,101241
2018-05-08T03:59:53.837Z,101243
2018-05-08T04:02:39.785Z,101243
2018-05-08T04:05:25.974Z,101240
2018-05-08T04:11:06.351Z,101237
2018-05-08T04:13:34.509Z,101236
2018-05-08T04:16:03.551Z,101233
2018-05-08T04:18:31.689Z,101241
2018-05-08T04:20:59.961Z,101233
2018-05-08T04:23:28.106Z,101226
2018-05-08T04:25:56.269Z,101235
2018-05-08T04:28:24.429Z,101230
2018-05-08T04:30:52.707Z,101229
2018-05-08T04:33:20.866Z,101227
2018-05-08T04:35:49.627Z,101226
2018-05-08T04:38:18.688Z,101225
2018-05-08T04:40:47.624Z,101232
2018-05-08T04:43:15.798Z,101232
2018-05-08T04:45:43.987Z,101223
2018-05-08T04:48:12.159Z,101231
2018-05-08T04:50:40.442Z,101224
2018-05-08T04:53:08.680Z,101228
2018-05-08T04:55:36.835Z,101229
2018-05-08T04:58:05.724Z,101226
2018-05-08T05:00:35.550Z,101224
2018-05-08T05:03:03.714Z,101226
2018-05-08T05:05:31.929Z,101219
2018-05-08T05:08:00.285Z,101228
2018-05-08T05:10:28.413Z,101225
2018-05-08T05:12:56.590Z,101220
2018-05-08T05:15:25.544Z,101222
2018-05-08T05:17:53.711Z,101218
2018-05-08T05:20:21.987Z,101219
2018-05-08T05:22:50.574Z,101230
2018-05-08T05:25:18.779Z,101219
2018-05-08T05:27:47.084Z,101217
2018-05-08T05:30:16.010Z,101214
2018-05-08T05:32:44.153Z,101209
2018-05-08T05:35:12.322Z,101216
2018-05-08T05:37:40.530Z,101210
2018-05-08T05:40:08.755Z,101216
2018-05-08T05:42:37.778Z,101216
2018-05-08T05:45:05.879Z,101201
2018-05-08T05:47:34.058Z,101208
2018-05-08T05:50:02.218Z,101211
2018-05-08T05:52:30.394Z,101203
2018-05-08T05:54:58.563Z,101203
2018-05-08T05:57:26.839Z,101203
2018-05-08T05:59:55.084Z,101200
2018-05-08T06:02:23.291Z,101200
2018-05-08T06:04:51.463Z,101199
2018-05-08T06:07:19.633Z,101205
2018-05-08T06:09:47.805Z,101204
2018-05-08T06:12:15.983Z,101203
2018-05-08T06:14:44.163Z,101203
2018-05-08T06:17:12.286Z,101200
2018-05-08T06:19:40.429Z,101206
2018-05-08T06:22:08.578Z,101197
2018-05-08T06:24:36.732Z,101193
2018-05-08T06:27:04.909Z,101193
2018-05-08T06:29:33.044Z,101190
2018-05-08T06:32:01.252Z,101189
2018-05-08T06:34:29.851Z,101188
2018-05-08T06:36:58.237Z,101182
2018-05-08T06:39:26.511Z,101182
2018-05-08T06:41:55.362Z,101180
2018-05-08T06:44:23.662Z,101180
2018-05-08T06:46:51.711Z,101178
2018-05-08T06:49:19.867Z,101184
2018-05-08T06:51:48.005Z,101197
2018-05-08T06:54:16.146Z,101185
2018-05-08T06:56:44.388Z,101182
2018-05-08T06:59:12.525Z,101182
2018-05-08T07:01:40.666Z,101176
2018-05-08T07:04:09.761Z,101181
2018-05-08T07:06:37.905Z,101182
2018-05-08T07:09:06.120Z,101170
2018-05-08T07:11:34.248Z,101173
2018-05-08T07:14:02.406Z,101178
2018-05-08T07:16:31.096Z,101173
2018-05-08T07:18:59.252Z,101172
2018-05-08T07:21:28.200Z,101166
2018-05-08T07:23:56.367Z,101165
2018-05-08T07:26:24.489Z,101164
2018-05-08T07:28:53.406Z,101166
2018-05-08T07:31:21.587Z,101167
2018-05-08T07:33:49.719Z,101161
2018-05-08T07:36:17.896Z,101164
2018-05-08T07:38:46.797Z,101159
2018-05-08T07:41:14.949Z,101166
2018-05-08T07:43:43.104Z,101169
2018-05-08T07:46:11.363Z,101168
2018-05-08T07:48:39.518Z,101168
2018-05-08T07:51:07.716Z,101158
2018-05-08T07:53:35.912Z,101164
2018-05-08T07:56:04.164Z,101160
2018-05-08T07:58:32.283Z,101163
2018-05-08T08:01:01.197Z,101160
2018-05-08T08:03:29.393Z,101156
2018-05-08T08:05:57.542Z,101155
2018-05-08T08:08:25.718Z,101162
2018-05-08T08:10:53.907Z,101160
2018-05-08T08:13:22.082Z,101159
2018-05-08T08:15:50.217Z,101159
2018-05-08T08:18:18.394Z,101164
2018-05-08T08:20:46.568Z,101159
2018-05-08T08:23:14.733Z,101163
2018-05-08T08:25:42.861Z,101155
2018-05-08T08:28:11.122Z,101158
2018-05-08T08:30:39.283Z,101162
2018-05-08T08:33:07.428Z,101150
2018-05-08T08:35:35.571Z,101156
2018-05-08T08:38:04.485Z,101143
2018-05-08T08:40:34.128Z,101149
2018-05-08T08:43:02.714Z,101141
2018-05-08T08:45:30.871Z,101144
2018-05-08T08:47:59.058Z,101147
2018-05-08T08:50:27.195Z,101147
2018-05-08T08:52:55.378Z,101136
2018-05-08T08:55:23.517Z,101138
2018-05-08T08:57:51.669Z,101140
2018-05-08T09:00:19.838Z,101126
2018-05-08T09:02:47.959Z,101125
2018-05-08T09:05:16.089Z,101127
2018-05-08T09:07:44.240Z,101133
2018-05-08T09:10:12.360Z,101118
2018-05-08T09:12:41.278Z,101131
2018-05-08T09:15:09.462Z,101122
2018-05-08T09:17:37.627Z,101118
2018-05-08T09:20:05.752Z,101111
2018-05-08T09:22:33.905Z,101120
2018-05-08T09:25:02.034Z,101115
2018-05-08T09:27:30.264Z,101112
2018-05-08T09:29:59.131Z,101114
2018-05-08T09:32:27.937Z,101103
2018-05-08T09:34:56.167Z,101108
2018-05-08T09:37:24.342Z,101095
2018-05-08T09:39:52.544Z,101101
2018-05-08T09:42:20.709Z,101100
2018-05-08T09:44:48.852Z,101102
2018-05-08T09:47:17.059Z,101088
2018-05-08T09:49:45.229Z,101088
2018-05-08T09:52:13.353Z,101088
2018-05-08T09:54:42.605Z,101081
2018-05-08T09:57:10.777Z,101085
2018-05-08T09:59:39.021Z,101087
2018-05-08T10:02:07.159Z,101076
2018-05-08T10:04:35.390Z,101088
2018-05-08T10:07:03.529Z,101076
2018-05-08T10:09:32.279Z,101071
2018-05-08T10:12:00.446Z,101074
2018-05-08T10:14:28.598Z,101074
2018-05-08T10:16:56.750Z,101075
2018-05-08T10:19:25.367Z,101069
2018-05-08T10:21:53.492Z,101068
2018-05-08T10:24:21.632Z,101057
2018-05-08T10:26:49.806Z,101054
2018-05-08T10:29:18.697Z,101059
2018-05-08T10:31:46.885Z,101048
2018-05-08T10:34:15.858Z,101057
2018-05-08T10:36:44.007Z,101048
2018-05-08T10:39:12.152Z,101046
2018-05-08T10:41:40.309Z,101034
2018-05-08T10:44:09.095Z,101042
2018-05-08T10:46:37.241Z,101033
2018-05-08T10:49:06.163Z,101036
2018-05-08T10:51:35.009Z,101034
2018-05-08T10:54:03.162Z,101027
2018-05-08T10:56:31.414Z,101023
2018-05-08T10:58:59.606Z,101020
2018-05-08T11:01:27.757Z,101024
2018-05-08T11:03:55.913Z,101023
2018-05-08T11:06:24.046Z,101015
2018-05-08T11:08:52.182Z,101002
2018-05-08T11:11:20.332Z,101003
2018-05-08T11:13:48.462Z,100999
2018-05-08T11:16:16.618Z,100996
2018-05-08T11:18:44.750Z,100995
2018-05-08T11:21:12.896Z,100990
2018-05-08T11:23:41.802Z,100996
2018-05-08T11:26:09.916Z,100984
2018-05-08T11:28:38.066Z,100978
2018-05-08T11:31:06.234Z,100978
2018-05-08T11:33:34.369Z,100972
2018-05-08T11:36:03.272Z,100977
2018-05-08T11:38:32.178Z,100972
2018-05-08T11:41:00.330Z,100971
2018-05-08T11:43:29.224Z,100967
2018-05-08T11:45:58.148Z,100970
2018-05-08T11:48:26.329Z,100964
2018-05-08T11:50:54.475Z,100964
2018-05-08T11:53:22.666Z,100965
2018-05-08T11:55:50.784Z,100944
2018-05-08T11:58:18.925Z,100950
2018-05-08T12:00:47.072Z,100952
2018-05-08T12:03:15.262Z,100949
2018-05-08T12:05:43.438Z,100936
2018-05-08T12:08:11.606Z,100945
2018-05-08T12:10:39.765Z,100942
2018-05-08T12:13:07.977Z,100941
2018-05-08T12:15:36.146Z,100938
2018-05-08T12:18:04.280Z,100935
2018-05-08T12:20:32.424Z,100922
2018-05-08T12:23:01.317Z,100921
2018-05-08T12:25:30.332Z,100917
2018-05-08T12:27:58.437Z,100928
2018-05-08T12:30:26.598Z,100929
2018-05-08T12:32:54.781Z,100918
2018-05-08T12:35:24.145Z,100912
2018-05-08T12:37:52.286Z,100908
2018-05-08T12:40:21.641Z,100906
2018-05-08T12:42:49.769Z,100900
2018-05-08T12:45:18.677Z,100902
2018-05-08T12:47:46.814Z,100888
2018-05-08T12:50:14.966Z,100887
2018-05-08T12:52:43.101Z,100885
2018-05-08T12:55:11.257Z,100888
2018-05-08T12:57:40.182Z,100891
2018-05-08T13:00:08.322Z,100883
2018-05-08T13:02:36.557Z,100881
2018-05-08T13:05:05.502Z,100883
2018-05-08T13:07:33.633Z,100875
2018-05-08T13:10:01.752Z,100875
2018-05-08T13:12:29.879Z,100862
2018-05-08T13:14:58.029Z,100854
2018-05-08T13:17:26.160Z,100857
2018-05-08T13:19:54.285Z,100856
2018-05-08T13:22:22.428Z,100853
2018-05-08T13:24:50.601Z,100837
2018-05-08T13:27:18.847Z,100851
2018-05-08T13:29:47.121Z,100850
2018-05-08T13:32:15.288Z,100844
2018-05-08T13:34:43.452Z,100849
2018-05-08T13:37:11.615Z,100846
2018-05-08T13:39:40.533Z,100843
2018-05-08T13:42:08.691Z,100847
2018-05-08T13:44:36.813Z,100844
2018-05-08T13:47:04.991Z,100829
2018-05-08T13:49:33.121Z,100828
2018-05-08T13:52:01.298Z,100823
2018-05-08T13:54:29.458Z,100825
2018-05-08T13:56:57.634Z,100831
2018-05-08T13:59:25.926Z,100822
2018-05-08T14:01:54.113Z,100829
2018-05-08T14:04:22.237Z,100828
2018-05-08T14:06:51.238Z,100813
2018-05-08T14:09:19.385Z,100823
2018-05-08T14:11:47.566Z,100805
2018-05-08T14:14:16.497Z,100808
2018-05-08T14:16:45.189Z,100814
2018-05-08T14:19:13.403Z,100802
2018-05-08T14:21:41.560Z,100808
2018-05-08T14:24:09.696Z,100800
2018-05-08T14:26:38.138Z,100803
2018-05-08T14:29:08.757Z,100793
2018-05-08T14:31:37.021Z,100797
2018-05-08T14:34:05.821Z,100796
2018-05-08T14:36:33.965Z,100798
2018-05-08T14:39:02.118Z,100786
2018-05-08T14:41:30.237Z,100784
2018-05-08T14:43:58.484Z,100782
2018-05-08T14:46:26.642Z,100770
2018-05-08T14:48:54.818Z,100774
2018-05-08T14:51:22.989Z,100770
2018-05-08T14:53:51.168Z,100770
2018-05-08T14:56:19.335Z,100777
2018-05-08T14:58:47.584Z,100767
2018-05-08T15:01:15.719Z,100764
2018-05-08T15:03:43.873Z,100772
2018-05-08T15:06:12.033Z,100766
2018-05-08T15:08:40.224Z,100779
2018-05-08T15:11:08.349Z,100774
2018-05-08T15:13:36.516Z,100767
2018-05-08T15:16:04.684Z,100767
2018-05-08T15:18:32.886Z,100761
2018-05-08T15:21:01.043Z,100761
2018-05-08T15:23:29.211Z,100757
2018-05-08T15:25:58.422Z,100756
2018-05-08T15:28:26.672Z,100761
2018-05-08T15:30:54.749Z,100751
2018-05-08T15:33:23.642Z,100751
2018-05-08T15:35:52.632Z,100748
2018-05-08T15:38:21.513Z,100751
2018-05-08T15:40:50.458Z,100750
2018-05-08T15:43:18.615Z,100748
2018-05-08T15:45:46.792Z,100744
2018-05-08T15:48:14.978Z,100746
2018-05-08T15:50:43.117Z,100732
2018-05-08T15:53:11.266Z,100733
2018-05-08T15:55:40.182Z,100732
2018-05-08T15:58:08.311Z,100725
2018-05-08T16:00:36.547Z,100718
2018-05-08T16:03:04.730Z,100715
2018-05-08T16:05:32.865Z,100726
2018-05-08T16:08:01.082Z,100721
2018-05-08T16:10:29.235Z,100717
2018-05-08T16:12:57.368Z,100705
2018-05-08T16:15:26.252Z,100714
2018-05-08T16:17:55.588Z,100717
2018-05-08T16:20:23.745Z,100707
2018-05-08T16:22:51.934Z,100714
2018-05-08T16:25:20.087Z,100711
2018-05-08T16:27:48.257Z,100707
2018-05-08T16:30:17.254Z,100699
2018-05-08T16:32:45.379Z,100694
2018-05-08T16:35:13.517Z,100698
2018-05-08T16:37:41.649Z,100697
2018-05-08T16:40:09.850Z,100704
2018-05-08T16:42:38.027Z,100693
2018-05-08T16:45:06.117Z,100690
2018-05-08T16:47:34.239Z,100690
2018-05-08T16:50:03.175Z,100689
2018-05-08T16:52:31.309Z,100687
2018-05-08T16:55:00.250Z,100699
2018-05-08T16:57:28.411Z,100697
2018-05-08T16:59:56.594Z,100700
2018-05-08T17:02:24.725Z,100685
2018-05-08T17:04:54.335Z,100689
2018-05-08T17:07:22.381Z,100683
2018-05-08T17:09:50.506Z,100687
2018-05-08T17:12:18.694Z,100681
2018-05-08T17:14:46.831Z,100686
2018-05-08T17:17:15.845Z,100693
2018-05-08T17:19:44.016Z,100688
2018-05-08T17:22:12.166Z,100683
2018-05-08T17:24:40.359Z,100683
2018-05-08T17:27:08.527Z,100679
2018-05-08T17:29:36.701Z,100676
2018-05-08T17:32:04.891Z,100673
2018-05-08T17:34:33.010Z,100681
2018-05-08T17:37:01.926Z,100673
2018-05-08T17:39:30.073Z,100673
2018-05-08T17:41:58.958Z,100665
2018-05-08T17:44:27.893Z,100673
2018-05-08T17:46:56.096Z,100673
2018-05-08T17:49:24.237Z,100666
2018-05-08T17:51:52.360Z,100671
2018-05-08T17:54:20.501Z,100669
2018-05-08T17:56:48.612Z,100671
2018-05-08T17:59:17.589Z,100671
2018-05-08T18:01:45.758Z,100668
2018-05-08T18:04:14.021Z,100663
2018-05-08T18:06:42.045Z,100672
2018-05-08T18:09:10.248Z,100667
2018-05-08T18:11:38.428Z,100666
2018-05-08T18:14:06.580Z,100668
2018-05-08T18:16:34.705Z,100670
2018-05-08T18:19:02.891Z,100670
2018-05-08T18:21:31.803Z,100662
2018-05-08T18:23:59.968Z,100667
2018-05-08T18:26:28.143Z,100661
2018-05-08T18:28:56.266Z,100659
2018-05-08T18:31:24.509Z,100659
2018-05-08T18:33:52.683Z,100661
2018-05-08T18:36:20.868Z,100661
2018-05-08T18:38:48.981Z,100660
2018-05-08T18:41:17.128Z,100673
2018-05-08T18:43:45.299Z,100664
2018-05-08T18:46:13.435Z,100670
2018-05-08T18:48:41.608Z,100666
2018-05-08T18:51:09.763Z,100672
2018-05-08T18:53:37.918Z,100668
2018-05-08T18:56:07.241Z,100668
2018-05-08T18:58:35.431Z,100676
2018-05-08T19:01:03.561Z,100673
2018-05-08T19:03:32.545Z,100677
2018-05-08T19:06:00.673Z,100680
2018-05-08T19:08:28.942Z,100671
2018-05-08T19:14:02.673Z,100666
2018-05-08T19:16:30.835Z,100668
2018-05-08T19:19:04.481Z,100673
2018-05-08T19:21:32.614Z,100679
2018-05-08T19:24:06.427Z,100675
2018-05-08T19:26:34.616Z,100672
2018-05-08T19:29:08.276Z,100674
2018-05-08T19:31:36.466Z,100680
2018-05-08T19:34:04.660Z,100681
2018-05-08T19:36:38.430Z,100675
2018-05-08T19:39:06.598Z,100674
2018-05-08T19:41:35.513Z,100676
2018-05-08T19:44:03.693Z,100676
2018-05-08T19:46:31.827Z,100676
2018-05-08T19:48:59.995Z,100675
2018-05-08T19:51:28.146Z,100682
2018-05-08T19:53:56.285Z,100673
2018-05-08T19:56:24.418Z,100669
2018-05-08T19:58:52.561Z,100676
2018-05-08T20:01:20.823Z,100673
2018-05-08T20:03:49.015Z,100671
2018-05-08T20:06:17.932Z,100670
2018-05-08T20:08:46.160Z,100672
2018-05-08T20:11:14.278Z,100674
2018-05-08T20:13:42.417Z,100668
2018-05-08T20:16:10.574Z,100678
2018-05-08T20:18:38.742Z,100671
2018-05-08T20:21:06.909Z,100675
2018-05-08T20:23:35.131Z,100667
2018-05-08T20:26:03.294Z,100670
2018-05-08T20:28:32.247Z,100666
2018-05-08T20:31:00.425Z,100662
2018-05-08T20:33:28.575Z,100662
2018-05-08T20:35:56.703Z,100662
2018-05-08T20:38:25.652Z,100667
2018-05-08T20:40:53.792Z,100657
2018-05-08T20:43:21.965Z,100658
2018-05-08T20:45:50.134Z,100663
2018-05-08T20:48:18.319Z,100665
2018-05-08T20:50:46.461Z,100659
2018-05-08T20:53:15.373Z,100662
2018-05-08T20:55:43.491Z,100666
2018-05-08T20:58:11.752Z,100663
2018-05-08T21:00:39.868Z,100661
2018-05-08T21:03:08.785Z,100663
2018-05-08T21:05:36.946Z,100664
2018-05-08T21:08:05.093Z,100663
2018-05-08T21:10:34.026Z,100659
2018-05-08T21:13:02.174Z,100656
2018-05-08T21:15:31.123Z,100655
2018-05-08T21:17:59.340Z,100656
2018-05-08T21:20:27.454Z,100654
2018-05-08T21:22:55.743Z,100652
2018-05-08T21:25:24.002Z,100651
2018-05-08T21:27:57.809Z,100642
2018-05-08T21:30:31.625Z,100649
2018-05-08T21:32:59.766Z,100652
2018-05-08T21:35:27.960Z,100648
2018-05-08T21:37:56.153Z,100642
2018-05-08T21:40:24.289Z,100650
2018-05-08T21:42:52.454Z,100643
2018-05-08T21:45:20.589Z,100644
2018-05-08T21:47:49.545Z,100647
2018-05-08T21:50:17.718Z,100649
2018-05-08T21:52:45.848Z,100655
2018-05-08T21:55:14.129Z,100648
2018-05-08T21:57:42.340Z,100646
2018-05-08T22:00:13.235Z,100650
2018-05-08T22:02:41.398Z,100643
2018-05-08T22:05:10.309Z,100636
2018-05-08T22:07:38.432Z,100645
2018-05-08T22:10:06.663Z,100646
2018-05-08T22:12:35.519Z,100645
2018-05-08T22:15:04.449Z,100645
2018-05-08T22:17:32.607Z,100644
2018-05-08T22:20:00.753Z,100636
2018-05-08T22:22:29.415Z,100639
2018-05-08T22:24:57.577Z,100640
2018-05-08T22:27:25.729Z,100632
2018-05-08T22:29:53.845Z,100643
2018-05-08T22:32:22.005Z,100640
2018-05-08T22:34:50.260Z,100644
2018-05-08T22:37:18.493Z,100637
2018-05-08T22:39:46.691Z,100641
2018-05-08T22:42:15.461Z,100640
2018-05-08T22:44:43.596Z,100633
2018-05-08T22:47:11.733Z,100631
2018-05-08T22:49:39.868Z,100639
2018-05-08T22:52:07.994Z,100640
2018-05-08T22:54:36.126Z,100632
2018-05-08T22:57:04.288Z,100643
2018-05-08T22:59:32.434Z,100634
2018-05-08T23:02:00.622Z,100634
2018-05-08T23:04:28.773Z,100639
2018-05-08T23:06:56.913Z,100638
2018-05-08T23:09:25.045Z,100637
2018-05-08T23:11:53.209Z,100634
2018-05-08T23:14:22.117Z,100643
2018-05-08T23:16:50.237Z,100635
2018-05-08T23:19:18.369Z,100637
2018-05-08T23:21:46.521Z,100633
2018-05-08T23:24:14.705Z,100636
2018-05-08T23:26:43.442Z,100633
2018-05-08T23:29:11.580Z,100634
2018-05-08T23:31:39.849Z,100630
2018-05-08T23:34:08.019Z,100630
2018-05-08T23:36:36.147Z,100644
2018-05-08T23:39:05.091Z,100632
2018-05-08T23:41:33.234Z,100632
2018-05-08T23:44:02.241Z,100624
2018-05-08T23:46:30.459Z,100633
2018-05-08T23:48:58.585Z,100629
2018-05-08T23:51:27.338Z,100623
2018-05-08T23:53:56.285Z,100619
2018-05-08T23:56:24.400Z,100626
2018-05-08T23:58:52.562Z,100621
